Terminal Aerodrome Forecast
Issued by NWS Louisville, KY

Home | Current Version | Previous Version | Text Only | Print | Product List | Glossary On
Versions: 1 2 3 4 5 6 7 8 9 10 11 12 13
780
FTUS43 KLMK 212320
TAFLEX
TAF
KLEX 212320Z 2200/2224 33008KT P6SM SCT025 BKN060
     FM220100 30004KT P6SM SKC
     FM221300 34008KT P6SM SCT060=

USA.gov is the U.S. government's official web portal to all federal, state and local government web resources and services.